sensor_id;sensor_type;location;lat;lon;timestamp;temperature;humidity
44166;DHT22;30476;53.468;9.826;2022-11-20T00:01:23;3.60;99.70
44166;DHT22;30476;53.468;9.826;2022-11-20T00:03:51;3.60;99.60
44166;DHT22;30476;53.468;9.826;2022-11-20T00:06:18;3.60;99.70
44166;DHT22;30476;53.468;9.826;2022-11-20T00:08:45;3.50;99.60
44166;DHT22;30476;53.468;9.826;2022-11-20T00:11:22;3.50;99.70
44166;DHT22;30476;53.468;9.826;2022-11-20T00:13:50;3.50;99.70
44166;DHT22;30476;53.468;9.826;2022-11-20T00:16:19;3.50;99.60
44166;DHT22;30476;53.468;9.826;2022-11-20T00:18:45;3.50;99.60
44166;DHT22;30476;53.468;9.826;2022-11-20T00:21:14;3.50;99.60
44166;DHT22;30476;53.468;9.826;2022-11-20T00:23:41;3.50;99.60
44166;DHT22;30476;53.468;9.826;2022-11-20T00:26:10;3.50;99.60
44166;DHT22;30476;53.468;9.826;2022-11-20T00:28:36;3.50;99.80
44166;DHT22;30476;53.468;9.826;2022-11-20T00:31:14;3.50;99.80
44166;DHT22;30476;53.468;9.826;2022-11-20T00:33:41;3.50;99.80
44166;DHT22;30476;53.468;9.826;2022-11-20T00:36:10;3.50;99.80
44166;DHT22;30476;53.468;9.826;2022-11-20T00:38:36;3.50;99.80
44166;DHT22;30476;53.468;9.826;2022-11-20T00:41:05;3.50;99.70
44166;DHT22;30476;53.468;9.826;2022-11-20T00:43:31;3.50;99.70
44166;DHT22;30476;53.468;9.826;2022-11-20T00:46:13;3.50;99.70
44166;DHT22;30476;53.468;9.826;2022-11-20T00:48:39;3.50;99.60
44166;DHT22;30476;53.468;9.826;2022-11-20T00:51:05;3.50;99.70
44166;DHT22;30476;53.468;9.826;2022-11-20T00:53:31;3.50;99.70
44166;DHT22;30476;53.468;9.826;2022-11-20T00:56:06;3.50;99.60
44166;DHT22;30476;53.468;9.826;2022-11-20T00:58:34;3.50;99.60
44166;DHT22;30476;53.468;9.826;2022-11-20T01:01:06;3.50;99.60
44166;DHT22;30476;53.468;9.826;2022-11-20T01:03:36;3.50;99.60
44166;DHT22;30476;53.468;9.826;2022-11-20T01:06:05;3.50;99.90
44166;DHT22;30476;53.468;9.826;2022-11-20T01:08:32;3.50;99.70
44166;DHT22;30476;53.468;9.826;2022-11-20T01:11:00;3.50;99.80
44166;DHT22;30476;53.468;9.826;2022-11-20T01:13:27;3.50;99.80
44166;DHT22;30476;53.468;9.826;2022-11-20T01:16:05;3.50;99.80
44166;DHT22;30476;53.468;9.826;2022-11-20T01:18:32;3.50;99.80
44166;DHT22;30476;53.468;9.826;2022-11-20T01:21:03;3.40;99.70
44166;DHT22;30476;53.468;9.826;2022-11-20T01:23:35;3.40;99.70
44166;DHT22;30476;53.468;9.826;2022-11-20T01:26:03;3.50;99.80
44166;DHT22;30476;53.468;9.826;2022-11-20T01:28:29;3.40;99.70
44166;DHT22;30476;53.468;9.826;2022-11-20T01:30:55;3.50;99.70
44166;DHT22;30476;53.468;9.826;2022-11-20T01:33:21;3.40;99.60
44166;DHT22;30476;53.468;9.826;2022-11-20T01:35:47;3.40;99.60
44166;DHT22;30476;53.468;9.826;2022-11-20T01:38:15;3.40;99.60
44166;DHT22;30476;53.468;9.826;2022-11-20T01:40:40;3.50;99.60
44166;DHT22;30476;53.468;9.826;2022-11-20T01:43:27;3.50;99.70
44166;DHT22;30476;53.468;9.826;2022-11-20T01:48:45;3.40;99.70
44166;DHT22;30476;53.468;9.826;2022-11-20T01:51:17;3.40;99.70
44166;DHT22;30476;53.468;9.826;2022-11-20T01:53:45;3.40;99.90
44166;DHT22;30476;53.468;9.826;2022-11-20T01:56:12;3.40;99.70
44166;DHT22;30476;53.468;9.826;2022-11-20T01:58:44;3.40;99.60
44166;DHT22;30476;53.468;9.826;2022-11-20T02:01:12;3.40;99.60
44166;DHT22;30476;53.468;9.826;2022-11-20T02:03:39;3.40;99.60
44166;DHT22;30476;53.468;9.826;2022-11-20T02:06:24;3.40;99.50
44166;DHT22;30476;53.468;9.826;2022-11-20T02:08:51;3.40;99.50
44166;DHT22;30476;53.468;9.826;2022-11-20T02:11:18;3.40;99.50
44166;DHT22;30476;53.468;9.826;2022-11-20T02:13:44;3.40;99.50
44166;DHT22;30476;53.468;9.826;2022-11-20T02:16:15;3.40;99.60
44166;DHT22;30476;53.468;9.826;2022-11-20T02:18:42;3.40;99.60
44166;DHT22;30476;53.468;9.826;2022-11-20T02:23:59;3.40;99.60
44166;DHT22;30476;53.468;9.826;2022-11-20T02:26:27;3.40;99.60
44166;DHT22;30476;53.468;9.826;2022-11-20T02:28:54;3.40;99.70
44166;DHT22;30476;53.468;9.826;2022-11-20T02:31:20;3.30;99.70
44166;DHT22;30476;53.468;9.826;2022-11-20T02:33:46;3.40;99.70
44166;DHT22;30476;53.468;9.826;2022-11-20T02:36:15;3.40;99.70
44166;DHT22;30476;53.468;9.826;2022-11-20T02:38:42;3.40;99.70
44166;DHT22;30476;53.468;9.826;2022-11-20T02:41:08;3.40;99.70
44166;DHT22;30476;53.468;9.826;2022-11-20T02:43:34;3.40;99.70
44166;DHT22;30476;53.468;9.826;2022-11-20T02:46:00;3.40;99.60
44166;DHT22;30476;53.468;9.826;2022-11-20T02:48:26;3.40;99.60
44166;DHT22;30476;53.468;9.826;2022-11-20T02:50:51;3.40;99.60
44166;DHT22;30476;53.468;9.826;2022-11-20T02:53:17;3.40;99.60
44166;DHT22;30476;53.468;9.826;2022-11-20T02:55:43;3.40;99.60
44166;DHT22;30476;53.468;9.826;2022-11-20T02:58:09;3.40;99.60
44166;DHT22;30476;53.468;9.826;2022-11-20T03:00:35;3.40;99.60
44166;DHT22;30476;53.468;9.826;2022-11-20T03:03:01;3.40;99.70
44166;DHT22;30476;53.468;9.826;2022-11-20T03:05:26;3.40;99.70
44166;DHT22;30476;53.468;9.826;2022-11-20T03:07:52;3.40;99.70
44166;DHT22;30476;53.468;9.826;2022-11-20T03:10:18;3.40;99.60
44166;DHT22;30476;53.468;9.826;2022-11-20T03:12:44;3.40;99.60
44166;DHT22;30476;53.468;9.826;2022-11-20T03:15:09;3.40;99.60
44166;DHT22;30476;53.468;9.826;2022-11-20T03:17:36;3.40;99.70
44166;DHT22;30476;53.468;9.826;2022-11-20T03:20:02;3.40;99.60
44166;DHT22;30476;53.468;9.826;2022-11-20T03:22:29;3.40;99.70
44166;DHT22;30476;53.468;9.826;2022-11-20T03:24:55;3.40;99.70
44166;DHT22;30476;53.468;9.826;2022-11-20T03:27:21;3.40;99.70
44166;DHT22;30476;53.468;9.826;2022-11-20T03:29:47;3.40;99.70
44166;DHT22;30476;53.468;9.826;2022-11-20T03:32:12;3.40;99.70
44166;DHT22;30476;53.468;9.826;2022-11-20T03:34:38;3.40;99.70
44166;DHT22;30476;53.468;9.826;2022-11-20T03:37:04;3.40;99.90
44166;DHT22;30476;53.468;9.826;2022-11-20T03:39:29;3.40;99.70
44166;DHT22;30476;53.468;9.826;2022-11-20T03:41:55;3.40;99.70
44166;DHT22;30476;53.468;9.826;2022-11-20T03:44:21;3.50;99.80
44166;DHT22;30476;53.468;9.826;2022-11-20T03:46:47;3.50;99.80
44166;DHT22;30476;53.468;9.826;2022-11-20T03:49:13;3.50;99.70
44166;DHT22;30476;53.468;9.826;2022-11-20T03:51:39;3.40;99.60
44166;DHT22;30476;53.468;9.826;2022-11-20T03:54:07;3.40;99.60
44166;DHT22;30476;53.468;9.826;2022-11-20T03:56:35;3.50;99.70
44166;DHT22;30476;53.468;9.826;2022-11-20T03:59:02;3.40;99.60
44166;DHT22;30476;53.468;9.826;2022-11-20T04:01:30;3.50;99.70
44166;DHT22;30476;53.468;9.826;2022-11-20T04:03:57;3.40;99.60
44166;DHT22;30476;53.468;9.826;2022-11-20T04:06:26;3.50;99.60
44166;DHT22;30476;53.468;9.826;2022-11-20T04:08:54;3.40;99.60
44166;DHT22;30476;53.468;9.826;2022-11-20T04:11:23;3.40;99.50
44166;DHT22;30476;53.468;9.826;2022-11-20T04:13:54;3.50;99.60
44166;DHT22;30476;53.468;9.826;2022-11-20T04:16:21;3.40;99.60
44166;DHT22;30476;53.468;9.826;2022-11-20T04:18:59;3.40;99.60
44166;DHT22;30476;53.468;9.826;2022-11-20T04:21:26;3.40;99.60
44166;DHT22;30476;53.468;9.826;2022-11-20T04:23:53;3.40;99.60
44166;DHT22;30476;53.468;9.826;2022-11-20T04:26:19;3.40;99.60
44166;DHT22;30476;53.468;9.826;2022-11-20T04:28:45;3.40;99.60
44166;DHT22;30476;53.468;9.826;2022-11-20T04:31:14;3.40;99.50
44166;DHT22;30476;53.468;9.826;2022-11-20T04:33:41;3.40;99.60
44166;DHT22;30476;53.468;9.826;2022-11-20T04:36:24;3.40;99.60
44166;DHT22;30476;53.468;9.826;2022-11-20T04:39:01;3.40;99.60
44166;DHT22;30476;53.468;9.826;2022-11-20T04:41:31;3.40;99.60
44166;DHT22;30476;53.468;9.826;2022-11-20T04:43:58;3.30;99.60
44166;DHT22;30476;53.468;9.826;2022-11-20T04:46:28;3.40;99.60
44166;DHT22;30476;53.468;9.826;2022-11-20T04:48:54;3.30;99.70
44166;DHT22;30476;53.468;9.826;2022-11-20T04:51:20;3.30;99.70
44166;DHT22;30476;53.468;9.826;2022-11-20T04:53:46;3.30;99.70
44166;DHT22;30476;53.468;9.826;2022-11-20T04:56:12;3.30;99.60
44166;DHT22;30476;53.468;9.826;2022-11-20T04:58:39;3.30;99.70
44166;DHT22;30476;53.468;9.826;2022-11-20T05:01:07;3.30;99.70
44166;DHT22;30476;53.468;9.826;2022-11-20T05:03:33;3.30;99.70
44166;DHT22;30476;53.468;9.826;2022-11-20T05:06:06;3.30;99.90
44166;DHT22;30476;53.468;9.826;2022-11-20T05:08:33;3.30;99.70
44166;DHT22;30476;53.468;9.826;2022-11-20T05:11:04;3.30;99.70
44166;DHT22;30476;53.468;9.826;2022-11-20T05:13:30;3.30;99.70
44166;DHT22;30476;53.468;9.826;2022-11-20T05:16:01;3.30;99.70
44166;DHT22;30476;53.468;9.826;2022-11-20T05:18:27;3.30;99.70
44166;DHT22;30476;53.468;9.826;2022-11-20T05:20:57;3.20;99.70
44166;DHT22;30476;53.468;9.826;2022-11-20T05:23:23;3.20;99.70
44166;DHT22;30476;53.468;9.826;2022-11-20T05:25:55;3.20;99.70
44166;DHT22;30476;53.468;9.826;2022-11-20T05:28:22;3.20;99.70
44166;DHT22;30476;53.468;9.826;2022-11-20T05:30:48;3.20;99.70
44166;DHT22;30476;53.468;9.826;2022-11-20T05:33:14;3.20;99.80
44166;DHT22;30476;53.468;9.826;2022-11-20T05:35:40;3.20;99.80
44166;DHT22;30476;53.468;9.826;2022-11-20T05:38:06;3.20;99.80
44166;DHT22;30476;53.468;9.826;2022-11-20T05:40:32;3.20;99.80
44166;DHT22;30476;53.468;9.826;2022-11-20T05:42:58;3.20;99.80
44166;DHT22;30476;53.468;9.826;2022-11-20T05:45:24;3.20;99.80
44166;DHT22;30476;53.468;9.826;2022-11-20T05:47:50;3.20;99.80
44166;DHT22;30476;53.468;9.826;2022-11-20T05:50:16;3.20;99.90
44166;DHT22;30476;53.468;9.826;2022-11-20T05:52:41;3.20;99.90
44166;DHT22;30476;53.468;9.826;2022-11-20T05:55:08;3.20;99.80
44166;DHT22;30476;53.468;9.826;2022-11-20T05:57:33;3.20;99.90
44166;DHT22;30476;53.468;9.826;2022-11-20T05:59:59;3.20;99.80
44166;DHT22;30476;53.468;9.826;2022-11-20T06:02:24;3.30;99.80
44166;DHT22;30476;53.468;9.826;2022-11-20T06:04:50;3.20;99.80
44166;DHT22;30476;53.468;9.826;2022-11-20T06:07:16;3.20;99.80
44166;DHT22;30476;53.468;9.826;2022-11-20T06:09:41;3.20;99.80
44166;DHT22;30476;53.468;9.826;2022-11-20T06:12:07;3.20;99.80
44166;DHT22;30476;53.468;9.826;2022-11-20T06:14:33;3.20;99.80
44166;DHT22;30476;53.468;9.826;2022-11-20T06:16:59;3.20;99.80
44166;DHT22;30476;53.468;9.826;2022-11-20T06:19:25;3.20;99.80
44166;DHT22;30476;53.468;9.826;2022-11-20T06:21:51;3.20;99.90
44166;DHT22;30476;53.468;9.826;2022-11-20T06:24:17;3.20;99.90
44166;DHT22;30476;53.468;9.826;2022-11-20T06:26:43;3.20;99.90
44166;DHT22;30476;53.468;9.826;2022-11-20T06:29:09;3.20;99.90
44166;DHT22;30476;53.468;9.826;2022-11-20T06:31:34;3.10;99.90
44166;DHT22;30476;53.468;9.826;2022-11-20T06:34:06;3.10;99.90
44166;DHT22;30476;53.468;9.826;2022-11-20T06:36:32;3.10;99.90
44166;DHT22;30476;53.468;9.826;2022-11-20T06:38:59;3.10;99.90
44166;DHT22;30476;53.468;9.826;2022-11-20T06:41:25;3.10;99.90
44166;DHT22;30476;53.468;9.826;2022-11-20T06:43:51;3.10;99.90
44166;DHT22;30476;53.468;9.826;2022-11-20T06:46:18;3.10;99.90
44166;DHT22;30476;53.468;9.826;2022-11-20T06:48:45;3.10;99.90
44166;DHT22;30476;53.468;9.826;2022-11-20T06:51:11;3.10;99.90
44166;DHT22;30476;53.468;9.826;2022-11-20T06:53:37;3.10;99.90
44166;DHT22;30476;53.468;9.826;2022-11-20T06:56:03;3.10;99.90
44166;DHT22;30476;53.468;9.826;2022-11-20T06:58:31;3.00;99.90
44166;DHT22;30476;53.468;9.826;2022-11-20T07:01:01;3.10;99.90
44166;DHT22;30476;53.468;9.826;2022-11-20T07:03:27;3.10;99.90
44166;DHT22;30476;53.468;9.826;2022-11-20T07:05:57;3.10;99.90
44166;DHT22;30476;53.468;9.826;2022-11-20T07:08:24;3.10;99.90
44166;DHT22;30476;53.468;9.826;2022-11-20T07:10:50;3.10;99.90
44166;DHT22;30476;53.468;9.826;2022-11-20T07:13:16;3.10;99.90
44166;DHT22;30476;53.468;9.826;2022-11-20T07:15:42;3.10;99.90
44166;DHT22;30476;53.468;9.826;2022-11-20T07:18:07;3.10;99.90
44166;DHT22;30476;53.468;9.826;2022-11-20T07:20:33;3.00;99.90
44166;DHT22;30476;53.468;9.826;2022-11-20T07:22:59;3.00;99.90
44166;DHT22;30476;53.468;9.826;2022-11-20T07:25:26;3.10;99.90
44166;DHT22;30476;53.468;9.826;2022-11-20T07:27:52;3.00;99.90
44166;DHT22;30476;53.468;9.826;2022-11-20T07:30:18;3.00;99.90
44166;DHT22;30476;53.468;9.826;2022-11-20T07:32:51;3.00;99.90
44166;DHT22;30476;53.468;9.826;2022-11-20T07:35:17;3.00;99.90
44166;DHT22;30476;53.468;9.826;2022-11-20T07:37:42;3.10;99.90
44166;DHT22;30476;53.468;9.826;2022-11-20T07:40:09;3.10;99.90
44166;DHT22;30476;53.468;9.826;2022-11-20T07:42:35;3.10;99.90
44166;DHT22;30476;53.468;9.826;2022-11-20T07:45:00;3.10;99.90
44166;DHT22;30476;53.468;9.826;2022-11-20T07:47:26;3.10;99.90
44166;DHT22;30476;53.468;9.826;2022-11-20T07:49:52;3.10;99.90
44166;DHT22;30476;53.468;9.826;2022-11-20T07:52:18;3.20;99.90
44166;DHT22;30476;53.468;9.826;2022-11-20T07:54:43;3.20;99.90
44166;DHT22;30476;53.468;9.826;2022-11-20T07:57:09;3.20;99.90
44166;DHT22;30476;53.468;9.826;2022-11-20T07:59:36;3.20;99.90
44166;DHT22;30476;53.468;9.826;2022-11-20T08:02:02;3.20;99.90
44166;DHT22;30476;53.468;9.826;2022-11-20T08:04:28;3.20;99.90
44166;DHT22;30476;53.468;9.826;2022-11-20T08:06:54;3.20;99.90
44166;DHT22;30476;53.468;9.826;2022-11-20T08:09:19;3.20;99.90
44166;DHT22;30476;53.468;9.826;2022-11-20T08:11:45;3.20;99.90
44166;DHT22;30476;53.468;9.826;2022-11-20T08:14:29;3.20;99.90
44166;DHT22;30476;53.468;9.826;2022-11-20T08:16:55;3.20;99.90
44166;DHT22;30476;53.468;9.826;2022-11-20T08:19:21;3.20;99.90
44166;DHT22;30476;53.468;9.826;2022-11-20T08:21:46;3.30;99.90
44166;DHT22;30476;53.468;9.826;2022-11-20T08:24:12;3.30;99.90
44166;DHT22;30476;53.468;9.826;2022-11-20T08:26:40;3.30;99.90
44166;DHT22;30476;53.468;9.826;2022-11-20T08:29:06;3.40;99.90
44166;DHT22;30476;53.468;9.826;2022-11-20T08:31:32;3.40;99.90
44166;DHT22;30476;53.468;9.826;2022-11-20T08:33:58;3.40;99.90
44166;DHT22;30476;53.468;9.826;2022-11-20T08:36:24;3.50;99.90
44166;DHT22;30476;53.468;9.826;2022-11-20T08:38:55;3.50;99.90
44166;DHT22;30476;53.468;9.826;2022-11-20T08:41:22;3.50;99.90
44166;DHT22;30476;53.468;9.826;2022-11-20T08:44:04;3.50;99.90
44166;DHT22;30476;53.468;9.826;2022-11-20T08:46:38;3.60;99.90
44166;DHT22;30476;53.468;9.826;2022-11-20T08:49:08;3.60;99.90
44166;DHT22;30476;53.468;9.826;2022-11-20T08:51:35;3.60;99.90
44166;DHT22;30476;53.468;9.826;2022-11-20T08:54:01;3.60;99.90
44166;DHT22;30476;53.468;9.826;2022-11-20T08:56:27;3.60;99.90
44166;DHT22;30476;53.468;9.826;2022-11-20T08:58:53;3.60;99.90
44166;DHT22;30476;53.468;9.826;2022-11-20T09:01:21;3.60;99.90
44166;DHT22;30476;53.468;9.826;2022-11-20T09:03:47;3.60;99.90
44166;DHT22;30476;53.468;9.826;2022-11-20T09:06:13;3.70;99.90
44166;DHT22;30476;53.468;9.826;2022-11-20T09:08:39;3.70;99.90
44166;DHT22;30476;53.468;9.826;2022-11-20T09:11:06;3.70;99.90
44166;DHT22;30476;53.468;9.826;2022-11-20T09:13:34;3.80;99.90
44166;DHT22;30476;53.468;9.826;2022-11-20T09:16:08;3.80;99.90
44166;DHT22;30476;53.468;9.826;2022-11-20T09:18:35;3.90;99.90
44166;DHT22;30476;53.468;9.826;2022-11-20T09:21:10;4.00;99.90
44166;DHT22;30476;53.468;9.826;2022-11-20T09:23:36;4.00;99.90
44166;DHT22;30476;53.468;9.826;2022-11-20T09:26:04;4.10;99.90
44166;DHT22;30476;53.468;9.826;2022-11-20T09:28:31;4.20;99.90
44166;DHT22;30476;53.468;9.826;2022-11-20T09:30:58;4.20;99.90
44166;DHT22;30476;53.468;9.826;2022-11-20T09:33:24;4.20;99.90
44166;DHT22;30476;53.468;9.826;2022-11-20T09:35:49;4.30;99.90
44166;DHT22;30476;53.468;9.826;2022-11-20T09:38:15;4.30;99.90
44166;DHT22;30476;53.468;9.826;2022-11-20T09:40:57;4.40;99.90
44166;DHT22;30476;53.468;9.826;2022-11-20T09:46:22;4.50;99.90
44166;DHT22;30476;53.468;9.826;2022-11-20T09:49:16;4.50;99.90
44166;DHT22;30476;53.468;9.826;2022-11-20T09:55:01;4.60;99.90
44166;DHT22;30476;53.468;9.826;2022-11-20T09:57:47;4.60;99.90
44166;DHT22;30476;53.468;9.826;2022-11-20T10:00:14;4.60;99.90
44166;DHT22;30476;53.468;9.826;2022-11-20T10:05:42;4.60;99.90
44166;DHT22;30476;53.468;9.826;2022-11-20T10:08:28;4.70;99.90
44166;DHT22;30476;53.468;9.826;2022-11-20T10:19:03;4.70;99.90
44166;DHT22;30476;53.468;9.826;2022-11-20T10:21:46;4.70;99.90
44166;DHT22;30476;53.468;9.826;2022-11-20T10:24:38;4.70;99.90
44166;DHT22;30476;53.468;9.826;2022-11-20T10:30:15;4.80;99.90
44166;DHT22;30476;53.468;9.826;2022-11-20T10:33:06;4.80;99.90
44166;DHT22;30476;53.468;9.826;2022-11-20T10:35:48;4.80;99.90
44166;DHT22;30476;53.468;9.826;2022-11-20T10:38:21;4.80;99.90
44166;DHT22;30476;53.468;9.826;2022-11-20T10:40:58;4.90;99.90
44166;DHT22;30476;53.468;9.826;2022-11-20T10:43:45;4.90;99.90
44166;DHT22;30476;53.468;9.826;2022-11-20T10:46:37;5.00;99.90
44166;DHT22;30476;53.468;9.826;2022-11-20T10:49:10;5.10;99.80
44166;DHT22;30476;53.468;9.826;2022-11-20T10:52:04;5.10;99.50
44166;DHT22;30476;53.468;9.826;2022-11-20T10:57:39;5.20;99.10
44166;DHT22;30476;53.468;9.826;2022-11-20T11:00:11;5.20;98.90
44166;DHT22;30476;53.468;9.826;2022-11-20T11:02:50;5.20;98.80
44166;DHT22;30476;53.468;9.826;2022-11-20T11:05:36;5.20;98.80
44166;DHT22;30476;53.468;9.826;2022-11-20T11:08:09;5.20;98.80
44166;DHT22;30476;53.468;9.826;2022-11-20T11:10:42;5.30;99.10
44166;DHT22;30476;53.468;9.826;2022-11-20T11:13:23;5.30;99.20
44166;DHT22;30476;53.468;9.826;2022-11-20T11:15:49;5.50;99.90
44166;DHT22;30476;53.468;9.826;2022-11-20T11:20:51;5.70;99.30
44166;DHT22;30476;53.468;9.826;2022-11-20T11:23:42;5.70;99.10
44166;DHT22;30476;53.468;9.826;2022-11-20T11:26:22;5.90;99.10
44166;DHT22;30476;53.468;9.826;2022-11-20T11:29:03;6.00;98.60
44166;DHT22;30476;53.468;9.826;2022-11-20T11:31:30;6.00;98.20
44166;DHT22;30476;53.468;9.826;2022-11-20T11:34:06;6.00;97.70
44166;DHT22;30476;53.468;9.826;2022-11-20T11:36:34;6.00;97.60
44166;DHT22;30476;53.468;9.826;2022-11-20T11:39:00;6.00;97.40
44166;DHT22;30476;53.468;9.826;2022-11-20T11:41:33;6.00;97.50
44166;DHT22;30476;53.468;9.826;2022-11-20T11:44:24;6.00;97.40
44166;DHT22;30476;53.468;9.826;2022-11-20T11:47:24;6.10;97.50
44166;DHT22;30476;53.468;9.826;2022-11-20T11:55:58;6.20;98.70
44166;DHT22;30476;53.468;9.826;2022-11-20T11:58:33;6.40;99.00
44166;DHT22;30476;53.468;9.826;2022-11-20T12:01:08;6.50;98.60
44166;DHT22;30476;53.468;9.826;2022-11-20T12:03:38;6.60;97.30
44166;DHT22;30476;53.468;9.826;2022-11-20T12:06:14;6.70;97.40
44166;DHT22;30476;53.468;9.826;2022-11-20T12:08:56;6.80;97.00
44166;DHT22;30476;53.468;9.826;2022-11-20T12:14:02;6.90;96.50
44166;DHT22;30476;53.468;9.826;2022-11-20T12:16:35;6.90;95.80
44166;DHT22;30476;53.468;9.826;2022-11-20T12:19:02;6.90;95.80
44166;DHT22;30476;53.468;9.826;2022-11-20T12:27:11;6.70;95.20
44166;DHT22;30476;53.468;9.826;2022-11-20T12:30:00;6.70;95.30
44166;DHT22;30476;53.468;9.826;2022-11-20T12:32:43;6.60;95.40
44166;DHT22;30476;53.468;9.826;2022-11-20T12:35:39;6.60;95.40
44166;DHT22;30476;53.468;9.826;2022-11-20T12:38:36;6.60;95.50
44166;DHT22;30476;53.468;9.826;2022-11-20T12:41:28;6.50;95.50
44166;DHT22;30476;53.468;9.826;2022-11-20T12:44:52;6.50;95.60
44166;DHT22;30476;53.468;9.826;2022-11-20T12:53:44;6.20;95.30
44166;DHT22;30476;53.468;9.826;2022-11-20T12:56:34;6.10;95.30
44166;DHT22;30476;53.468;9.826;2022-11-20T13:07:03;6.10;95.60
44166;DHT22;30476;53.468;9.826;2022-11-20T13:09:30;6.10;95.70
44166;DHT22;30476;53.468;9.826;2022-11-20T13:17:54;6.20;95.80
44166;DHT22;30476;53.468;9.826;2022-11-20T13:20:21;6.20;95.90
44166;DHT22;30476;53.468;9.826;2022-11-20T13:22:49;6.20;96.10
44166;DHT22;30476;53.468;9.826;2022-11-20T13:25:28;6.30;96.20
44166;DHT22;30476;53.468;9.826;2022-11-20T13:27:57;6.40;97.10
44166;DHT22;30476;53.468;9.826;2022-11-20T13:30:27;6.50;99.90
44166;DHT22;30476;53.468;9.826;2022-11-20T13:32:57;6.60;99.90
44166;DHT22;30476;53.468;9.826;2022-11-20T13:35:34;6.70;99.90
44166;DHT22;30476;53.468;9.826;2022-11-20T13:38:20;6.80;99.90
44166;DHT22;30476;53.468;9.826;2022-11-20T13:40:57;6.90;99.90
44166;DHT22;30476;53.468;9.826;2022-11-20T13:48:24;7.00;98.70
44166;DHT22;30476;53.468;9.826;2022-11-20T13:56:53;7.00;97.80
44166;DHT22;30476;53.468;9.826;2022-11-20T13:59:53;7.00;97.50
44166;DHT22;30476;53.468;9.826;2022-11-20T14:02:23;6.90;97.40
44166;DHT22;30476;53.468;9.826;2022-11-20T14:04:56;6.90;97.60
44166;DHT22;30476;53.468;9.826;2022-11-20T14:07:31;6.90;96.90
44166;DHT22;30476;53.468;9.826;2022-11-20T14:09:58;6.90;95.90
44166;DHT22;30476;53.468;9.826;2022-11-20T14:12:29;6.80;95.50
44166;DHT22;30476;53.468;9.826;2022-11-20T14:14:55;6.70;95.40
44166;DHT22;30476;53.468;9.826;2022-11-20T14:17:32;6.60;95.00
44166;DHT22;30476;53.468;9.826;2022-11-20T14:20:20;6.50;94.90
44166;DHT22;30476;53.468;9.826;2022-11-20T14:22:49;6.40;94.90
44166;DHT22;30476;53.468;9.826;2022-11-20T14:27:43;6.10;94.90
44166;DHT22;30476;53.468;9.826;2022-11-20T14:30:15;6.00;95.00
44166;DHT22;30476;53.468;9.826;2022-11-20T14:32:42;5.90;95.00
44166;DHT22;30476;53.468;9.826;2022-11-20T14:35:13;5.70;95.10
44166;DHT22;30476;53.468;9.826;2022-11-20T14:37:40;5.60;95.20
44166;DHT22;30476;53.468;9.826;2022-11-20T14:40:27;5.50;95.30
44166;DHT22;30476;53.468;9.826;2022-11-20T14:42:53;5.30;95.30
44166;DHT22;30476;53.468;9.826;2022-11-20T14:45:19;5.30;95.50
44166;DHT22;30476;53.468;9.826;2022-11-20T14:47:45;5.20;95.70
44166;DHT22;30476;53.468;9.826;2022-11-20T14:50:23;5.10;95.80
44166;DHT22;30476;53.468;9.826;2022-11-20T14:52:51;5.10;95.90
44166;DHT22;30476;53.468;9.826;2022-11-20T14:55:32;5.10;96.00
44166;DHT22;30476;53.468;9.826;2022-11-20T14:58:18;5.10;96.10
44166;DHT22;30476;53.468;9.826;2022-11-20T15:00:57;5.10;96.20
44166;DHT22;30476;53.468;9.826;2022-11-20T15:03:30;5.00;96.30
44166;DHT22;30476;53.468;9.826;2022-11-20T15:05:56;5.00;96.30
44166;DHT22;30476;53.468;9.826;2022-11-20T15:08:22;5.00;96.50
44166;DHT22;30476;53.468;9.826;2022-11-20T15:10:49;5.00;96.50
44166;DHT22;30476;53.468;9.826;2022-11-20T15:13:36;5.00;96.60
44166;DHT22;30476;53.468;9.826;2022-11-20T15:16:03;5.00;96.60
44166;DHT22;30476;53.468;9.826;2022-11-20T15:18:38;4.90;96.60
44166;DHT22;30476;53.468;9.826;2022-11-20T15:21:12;4.90;96.60
44166;DHT22;30476;53.468;9.826;2022-11-20T15:23:38;4.90;96.60
44166;DHT22;30476;53.468;9.826;2022-11-20T15:26:05;4.90;96.60
44166;DHT22;30476;53.468;9.826;2022-11-20T15:28:36;4.90;96.60
44166;DHT22;30476;53.468;9.826;2022-11-20T15:31:03;4.90;96.60
44166;DHT22;30476;53.468;9.826;2022-11-20T15:33:30;4.80;96.70
44166;DHT22;30476;53.468;9.826;2022-11-20T15:35:56;4.80;96.80
44166;DHT22;30476;53.468;9.826;2022-11-20T15:38:22;4.80;96.90
44166;DHT22;30476;53.468;9.826;2022-11-20T15:40:48;4.80;96.90
44166;DHT22;30476;53.468;9.826;2022-11-20T15:43:14;4.70;96.80
44166;DHT22;30476;53.468;9.826;2022-11-20T15:45:49;4.80;96.90
44166;DHT22;30476;53.468;9.826;2022-11-20T15:48:21;4.70;96.80
44166;DHT22;30476;53.468;9.826;2022-11-20T15:51:11;4.70;96.80
44166;DHT22;30476;53.468;9.826;2022-11-20T15:53:41;4.70;96.80
44166;DHT22;30476;53.468;9.826;2022-11-20T15:56:14;4.70;96.90
44166;DHT22;30476;53.468;9.826;2022-11-20T15:58:40;4.70;97.10
44166;DHT22;30476;53.468;9.826;2022-11-20T16:01:10;4.60;97.20
44166;DHT22;30476;53.468;9.826;2022-11-20T16:03:37;4.60;97.30
44166;DHT22;30476;53.468;9.826;2022-11-20T16:06:03;4.60;97.40
44166;DHT22;30476;53.468;9.826;2022-11-20T16:08:29;4.60;97.40
44166;DHT22;30476;53.468;9.826;2022-11-20T16:10:54;4.60;97.40
44166;DHT22;30476;53.468;9.826;2022-11-20T16:13:20;4.50;97.20
44166;DHT22;30476;53.468;9.826;2022-11-20T16:16:17;4.50;97.20
44166;DHT22;30476;53.468;9.826;2022-11-20T16:18:44;4.50;97.10
44166;DHT22;30476;53.468;9.826;2022-11-20T16:21:11;4.40;97.10
44166;DHT22;30476;53.468;9.826;2022-11-20T16:23:38;4.40;97.00
44166;DHT22;30476;53.468;9.826;2022-11-20T16:26:17;4.40;97.10
44166;DHT22;30476;53.468;9.826;2022-11-20T16:28:44;4.30;97.10
44166;DHT22;30476;53.468;9.826;2022-11-20T16:31:12;4.30;97.10
44166;DHT22;30476;53.468;9.826;2022-11-20T16:33:39;4.30;97.00
44166;DHT22;30476;53.468;9.826;2022-11-20T16:36:09;4.30;97.10
44166;DHT22;30476;53.468;9.826;2022-11-20T16:38:35;4.20;97.10
44166;DHT22;30476;53.468;9.826;2022-11-20T16:41:01;4.20;97.30
44166;DHT22;30476;53.468;9.826;2022-11-20T16:43:27;4.10;97.30
44166;DHT22;30476;53.468;9.826;2022-11-20T16:45:53;4.10;97.40
44166;DHT22;30476;53.468;9.826;2022-11-20T16:48:19;4.00;97.40
44166;DHT22;30476;53.468;9.826;2022-11-20T16:50:48;4.00;97.50
44166;DHT22;30476;53.468;9.826;2022-11-20T16:53:16;4.00;97.60
44166;DHT22;30476;53.468;9.826;2022-11-20T16:55:42;3.90;97.60
44166;DHT22;30476;53.468;9.826;2022-11-20T16:58:08;3.90;97.60
44166;DHT22;30476;53.468;9.826;2022-11-20T17:00:41;3.80;97.50
44166;DHT22;30476;53.468;9.826;2022-11-20T17:03:06;3.80;97.50
44166;DHT22;30476;53.468;9.826;2022-11-20T17:05:33;3.80;97.40
44166;DHT22;30476;53.468;9.826;2022-11-20T17:07:59;3.70;97.40
44166;DHT22;30476;53.468;9.826;2022-11-20T17:10:25;3.70;97.40
44166;DHT22;30476;53.468;9.826;2022-11-20T17:12:51;3.70;97.30
44166;DHT22;30476;53.468;9.826;2022-11-20T17:15:17;3.60;97.30
44166;DHT22;30476;53.468;9.826;2022-11-20T17:17:42;3.60;97.30
44166;DHT22;30476;53.468;9.826;2022-11-20T17:20:09;3.50;97.30
44166;DHT22;30476;53.468;9.826;2022-11-20T17:22:36;3.50;97.30